createdAt,value
2022-11-09T00:01:20.839Z,99.90
2022-11-09T00:03:49.268Z,99.90
2022-11-09T00:06:18.925Z,99.90
2022-11-09T00:08:47.042Z,99.90
2022-11-09T00:11:15.222Z,99.90
2022-11-09T00:13:45.139Z,99.90
2022-11-09T00:16:15.532Z,99.90
2022-11-09T00:18:47.318Z,99.90
2022-11-09T00:21:19.749Z,99.90
2022-11-09T00:23:48.208Z,99.90
2022-11-09T00:26:18.617Z,99.90
2022-11-09T00:28:46.911Z,99.90
2022-11-09T00:31:16.733Z,99.90
2022-11-09T00:33:44.862Z,99.90
2022-11-09T00:36:13.978Z,99.90
2022-11-09T00:38:43.618Z,99.90
2022-11-09T00:41:12.731Z,99.90
2022-11-09T00:43:41.193Z,99.90
2022-11-09T00:46:09.701Z,99.90
2022-11-09T00:48:39.125Z,99.90
2022-11-09T00:51:08.007Z,99.90
2022-11-09T00:53:36.258Z,99.90
2022-11-09T00:56:08.868Z,99.90
2022-11-09T00:58:38.288Z,99.90
2022-11-09T01:01:11.240Z,99.90
2022-11-09T01:03:40.307Z,99.90
2022-11-09T01:06:08.939Z,99.90
2022-11-09T01:08:37.892Z,99.90
2022-11-09T01:11:10.562Z,99.90
2022-11-09T01:13:39.645Z,99.90
2022-11-09T01:16:09.641Z,99.90
2022-11-09T01:18:38.628Z,99.90
2022-11-09T01:21:08.641Z,99.90
2022-11-09T01:23:36.962Z,99.90
2022-11-09T01:26:08.601Z,99.90
2022-11-09T01:28:37.194Z,99.90
2022-11-09T01:31:07.407Z,99.90
2022-11-09T01:33:35.743Z,99.90
2022-11-09T01:36:05.354Z,99.90
2022-11-09T01:38:34.567Z,99.90
2022-11-09T01:41:03.003Z,99.90
2022-11-09T01:43:32.998Z,99.90
2022-11-09T01:46:05.045Z,99.90
2022-11-09T01:48:38.902Z,99.90
2022-11-09T01:51:11.042Z,99.90
2022-11-09T01:53:44.766Z,99.90
2022-11-09T01:56:14.828Z,99.90
2022-11-09T01:58:48.807Z,99.90
2022-11-09T02:01:18.757Z,99.90
2022-11-09T02:03:52.949Z,99.90
2022-11-09T02:06:23.276Z,99.90
2022-11-09T02:08:55.648Z,99.90
2022-11-09T02:11:25.162Z,99.90
2022-11-09T02:13:58.040Z,99.90
2022-11-09T02:16:27.414Z,99.90
2022-11-09T02:18:57.245Z,99.90
2022-11-09T02:21:29.876Z,99.90
2022-11-09T02:23:58.782Z,99.90
2022-11-09T02:26:31.137Z,99.90
2022-11-09T02:29:00.841Z,99.90
2022-11-09T02:31:35.129Z,99.90
2022-11-09T02:34:08.304Z,99.90
2022-11-09T02:36:38.312Z,99.90
2022-11-09T02:39:07.269Z,99.90
2022-11-09T02:41:40.801Z,99.90
2022-11-09T02:44:08.951Z,99.90
2022-11-09T02:46:38.210Z,99.90
2022-11-09T02:49:06.655Z,99.90
2022-11-09T02:51:34.795Z,99.90
2022-11-09T02:54:04.361Z,99.90
2022-11-09T02:56:32.569Z,99.90
2022-11-09T02:59:00.719Z,99.90
2022-11-09T03:01:28.985Z,99.90
2022-11-09T03:03:57.166Z,99.90
2022-11-09T03:06:34.761Z,99.90
2022-11-09T03:09:06.318Z,99.90
2022-11-09T03:11:34.508Z,99.90
2022-11-09T03:14:02.670Z,99.90
2022-11-09T03:16:31.494Z,99.90
2022-11-09T03:18:59.787Z,1.00
2022-11-09T03:21:27.999Z,1.00
2022-11-09T03:23:56.196Z,51.80
2022-11-09T03:26:25.680Z,1.00
2022-11-09T03:28:53.735Z,1.00
2022-11-09T03:31:21.984Z,1.00
2022-11-09T03:33:50.038Z,99.90
2022-11-09T03:36:18.063Z,99.90
2022-11-09T03:38:46.138Z,99.70
2022-11-09T03:41:14.285Z,99.90
2022-11-09T03:43:43.689Z,5.10
2022-11-09T03:46:11.793Z,99.90
2022-11-09T03:48:39.943Z,1.00
2022-11-09T03:51:08.045Z,1.00
2022-11-09T03:53:36.112Z,99.90
2022-11-09T03:56:04.175Z,1.00
2022-11-09T03:58:32.236Z,1.00
2022-11-09T04:01:01.661Z,91.40
2022-11-09T04:03:29.800Z,99.90
2022-11-09T04:05:59.859Z,99.90
2022-11-09T04:08:28.040Z,99.90
2022-11-09T04:10:56.138Z,99.90
2022-11-09T04:13:24.201Z,6.20
2022-11-09T04:15:52.415Z,1.00
2022-11-09T04:18:21.950Z,1.00
2022-11-09T04:20:50.187Z,99.90
2022-11-09T04:23:18.738Z,1.00
2022-11-09T04:25:47.068Z,6.40
2022-11-09T04:28:15.104Z,1.00
2022-11-09T04:30:44.218Z,1.00
2022-11-09T04:33:12.220Z,99.90
2022-11-09T04:35:41.748Z,1.00
2022-11-09T04:38:12.835Z,1.00
2022-11-09T04:40:41.031Z,26.20
2022-11-09T04:43:13.751Z,99.90
2022-11-09T04:45:41.916Z,99.90
2022-11-09T04:48:12.114Z,1.00
2022-11-09T04:50:41.589Z,1.00
2022-11-09T04:53:11.847Z,1.00
2022-11-09T04:55:40.999Z,1.00
2022-11-09T04:58:09.915Z,1.00
2022-11-09T05:00:38.076Z,1.00
2022-11-09T05:03:07.679Z,1.00
2022-11-09T05:05:36.351Z,1.00
2022-11-09T05:08:06.805Z,1.00
2022-11-09T05:10:35.775Z,1.00
2022-11-09T05:13:05.902Z,1.00
2022-11-09T05:15:34.621Z,1.00
2022-11-09T05:18:02.954Z,1.00
2022-11-09T05:20:31.474Z,1.00
2022-11-09T05:23:17.697Z,1.00
2022-11-09T05:25:48.653Z,1.00
2022-11-09T05:28:16.853Z,1.00
2022-11-09T05:30:44.989Z,1.00
2022-11-09T05:33:13.160Z,1.00
2022-11-09T05:35:41.212Z,1.00
2022-11-09T05:38:09.323Z,1.00
2022-11-09T05:40:37.492Z,1.00
2022-11-09T05:43:07.037Z,1.00
2022-11-09T05:45:42.743Z,1.00
2022-11-09T05:48:12.301Z,1.00
2022-11-09T05:50:41.312Z,1.00
2022-11-09T05:53:10.702Z,1.00
2022-11-09T05:55:38.751Z,1.00
2022-11-09T05:58:08.865Z,1.00
2022-11-09T06:00:37.540Z,1.00
2022-11-09T06:03:06.750Z,1.00
2022-11-09T06:05:34.863Z,1.00
2022-11-09T06:08:06.713Z,1.00
2022-11-09T06:10:35.332Z,1.00
2022-11-09T06:13:03.471Z,1.00
2022-11-09T06:15:32.993Z,1.00
2022-11-09T06:18:01.081Z,1.00
2022-11-09T06:20:29.807Z,1.00
2022-11-09T06:23:03.156Z,1.00
2022-11-09T06:25:33.650Z,1.00
2022-11-09T06:28:02.147Z,1.00
2022-11-09T06:30:30.500Z,1.00
2022-11-09T06:33:03.734Z,1.00
2022-11-09T06:35:31.999Z,1.00
2022-11-09T06:38:01.292Z,1.00
2022-11-09T06:40:29.878Z,1.00
2022-11-09T06:42:59.358Z,1.00
2022-11-09T06:45:28.763Z,1.00
2022-11-09T06:47:57.614Z,99.90
2022-11-09T06:50:27.968Z,99.90
2022-11-09T06:52:58.839Z,1.00
2022-11-09T06:55:27.264Z,99.90
2022-11-09T06:57:55.837Z,99.90
2022-11-09T07:00:24.770Z,99.90
2022-11-09T07:02:52.940Z,1.00
2022-11-09T07:05:21.608Z,1.00
2022-11-09T07:07:51.294Z,1.00
2022-11-09T07:10:19.582Z,1.00
2022-11-09T07:12:47.905Z,1.00
2022-11-09T07:15:16.090Z,1.00
2022-11-09T07:17:44.213Z,1.00
2022-11-09T07:20:14.850Z,1.00
2022-11-09T07:22:43.032Z,1.00
2022-11-09T07:25:13.742Z,1.00
2022-11-09T07:27:42.492Z,1.00
2022-11-09T07:30:12.104Z,1.00
2022-11-09T07:33:07.298Z,1.00
2022-11-09T07:35:29.392Z,1.00
2022-11-09T07:38:02.133Z,1.00
2022-11-09T07:40:32.123Z,1.00
2022-11-09T07:43:01.176Z,1.00
2022-11-09T07:45:32.325Z,1.00
2022-11-09T07:48:02.641Z,1.00
2022-11-09T07:50:32.216Z,1.00
2022-11-09T07:53:01.663Z,1.00
2022-11-09T07:55:32.309Z,1.00
2022-11-09T07:58:02.464Z,1.00
2022-11-09T08:00:32.292Z,1.00
2022-11-09T08:03:00.378Z,1.00
2022-11-09T08:05:30.347Z,1.00
2022-11-09T08:07:59.585Z,1.00
2022-11-09T08:10:29.227Z,1.00
2022-11-09T08:13:01.218Z,1.00
2022-11-09T08:15:29.920Z,1.00
2022-11-09T08:18:01.194Z,1.00
2022-11-09T08:20:29.774Z,1.00
2022-11-09T08:23:03.364Z,1.00
2022-11-09T08:25:32.488Z,1.00
2022-11-09T08:28:02.069Z,1.00
2022-11-09T08:30:32.275Z,1.00
2022-11-09T08:33:01.230Z,1.00
2022-11-09T08:35:29.675Z,1.00
2022-11-09T08:38:01.265Z,1.00
2022-11-09T08:40:30.634Z,1.00
2022-11-09T08:43:05.012Z,1.00
2022-11-09T08:45:35.029Z,1.00
2022-11-09T08:48:04.143Z,1.00
2022-11-09T08:50:33.582Z,1.00
2022-11-09T08:53:02.683Z,1.00
2022-11-09T08:55:31.293Z,1.00
2022-11-09T08:58:01.665Z,1.00
2022-11-09T09:00:31.587Z,1.00
2022-11-09T09:02:59.754Z,1.00
2022-11-09T09:05:27.908Z,1.00
2022-11-09T09:07:56.157Z,1.00
2022-11-09T09:10:24.408Z,1.00
2022-11-09T09:12:52.543Z,1.00
2022-11-09T09:15:20.762Z,1.00
2022-11-09T09:17:50.344Z,1.00
2022-11-09T09:20:18.585Z,1.00
2022-11-09T09:22:46.846Z,1.00
2022-11-09T09:25:15.187Z,1.00
2022-11-09T09:27:45.033Z,1.00
2022-11-09T09:30:14.465Z,1.00
2022-11-09T09:32:43.010Z,1.00
2022-11-09T09:35:13.902Z,1.00
2022-11-09T09:37:42.120Z,1.00
2022-11-09T09:40:22.129Z,1.00
2022-11-09T09:42:51.162Z,1.00
2022-11-09T09:45:22.133Z,1.00
2022-11-09T09:47:54.448Z,1.00
2022-11-09T09:50:27.723Z,1.00
2022-11-09T09:53:23.161Z,1.00
2022-11-09T09:55:56.324Z,1.00
2022-11-09T09:58:27.661Z,1.00
2022-11-09T10:00:59.651Z,1.00
2022-11-09T10:03:28.308Z,1.00
2022-11-09T10:06:06.241Z,1.00
2022-11-09T10:08:45.447Z,1.00
2022-11-09T10:11:23.268Z,1.00
2022-11-09T10:14:22.160Z,1.00
2022-11-09T10:16:55.954Z,99.90
2022-11-09T10:19:36.159Z,99.90
2022-11-09T10:22:13.462Z,99.90
2022-11-09T10:25:18.560Z,99.90
2022-11-09T10:27:43.230Z,1.00
2022-11-09T10:30:16.129Z,99.90
2022-11-09T10:32:46.872Z,99.90
2022-11-09T10:35:21.818Z,1.00
2022-11-09T10:37:52.401Z,1.00
2022-11-09T10:40:25.144Z,99.90
2022-11-09T10:42:56.533Z,1.00
2022-11-09T10:45:33.967Z,1.00
2022-11-09T10:48:03.346Z,1.00
2022-11-09T10:50:34.821Z,99.90
2022-11-09T10:53:15.133Z,99.90
2022-11-09T10:55:56.210Z,99.90
2022-11-09T10:58:29.570Z,1.00
2022-11-09T11:01:03.406Z,99.90
2022-11-09T11:03:33.937Z,99.90
2022-11-09T11:06:03.861Z,99.90
2022-11-09T11:08:42.850Z,99.90
2022-11-09T11:11:39.797Z,99.90
2022-11-09T11:14:23.426Z,99.90
2022-11-09T11:16:53.236Z,99.90
2022-11-09T11:19:36.130Z,99.90
2022-11-09T11:22:27.514Z,1.00
2022-11-09T11:24:59.411Z,99.90
2022-11-09T11:27:37.353Z,99.90
2022-11-09T11:30:14.230Z,99.90
2022-11-09T11:32:49.840Z,1.00
2022-11-09T11:35:29.297Z,99.90
2022-11-09T11:38:10.896Z,99.90
2022-11-09T11:40:48.123Z,99.90
2022-11-09T11:43:27.173Z,99.90
2022-11-09T11:46:05.080Z,99.90
2022-11-09T11:48:56.759Z,99.90
2022-11-09T11:51:33.328Z,1.00
2022-11-09T11:54:10.509Z,1.00
2022-11-09T11:56:44.491Z,99.90
2022-11-09T11:59:48.309Z,1.00
2022-11-09T12:02:32.928Z,99.90
2022-11-09T12:05:29.989Z,99.90
2022-11-09T12:08:06.850Z,99.90
2022-11-09T12:10:47.271Z,99.90
2022-11-09T12:13:35.760Z,99.90
2022-11-09T12:16:09.957Z,99.90
2022-11-09T12:18:50.499Z,96.00
2022-11-09T12:21:21.559Z,99.90
2022-11-09T12:24:16.593Z,1.00
2022-11-09T12:27:17.958Z,1.00
2022-11-09T12:29:57.467Z,1.00
2022-11-09T12:32:33.157Z,99.90
2022-11-09T12:35:25.322Z,1.00
2022-11-09T12:38:01.184Z,1.00
2022-11-09T12:40:34.126Z,99.90
2022-11-09T12:43:12.663Z,99.90
2022-11-09T12:45:47.126Z,1.00
2022-11-09T12:48:23.779Z,1.00
2022-11-09T12:50:55.162Z,1.00
2022-11-09T12:53:29.886Z,47.90
2022-11-09T12:56:04.553Z,25.40
2022-11-09T12:58:34.539Z,99.90
2022-11-09T13:01:07.096Z,74.50
2022-11-09T13:03:38.762Z,47.80
2022-11-09T13:06:16.611Z,1.00
2022-11-09T13:08:57.849Z,99.90
2022-11-09T13:11:37.718Z,99.90
2022-11-09T13:14:38.569Z,99.90
2022-11-09T13:17:49.634Z,99.90
2022-11-09T13:20:58.272Z,99.90
2022-11-09T13:26:57.724Z,99.90
2022-11-09T13:29:27.850Z,99.90
2022-11-09T13:32:27.096Z,99.90
2022-11-09T13:34:57.268Z,99.90
2022-11-09T13:37:49.646Z,99.90
2022-11-09T13:40:40.255Z,99.90
2022-11-09T13:43:21.230Z,99.40
2022-11-09T13:45:52.936Z,99.90
2022-11-09T13:48:40.727Z,99.90
2022-11-09T13:51:11.947Z,99.90
2022-11-09T13:53:56.752Z,99.90
2022-11-09T13:56:36.237Z,99.90
2022-11-09T13:59:14.223Z,99.90
2022-11-09T14:01:50.204Z,99.90
2022-11-09T14:04:27.458Z,99.90
2022-11-09T14:07:03.741Z,99.90
2022-11-09T14:09:46.854Z,1.00
2022-11-09T14:12:33.146Z,99.90
2022-11-09T14:15:29.716Z,1.00
2022-11-09T14:18:11.222Z,1.00
2022-11-09T14:20:43.680Z,1.00
2022-11-09T14:23:19.092Z,1.00
2022-11-09T14:25:49.858Z,1.00
2022-11-09T14:28:23.681Z,1.00
2022-11-09T14:30:52.097Z,1.00
2022-11-09T14:33:26.990Z,1.00
2022-11-09T14:35:57.724Z,1.00
2022-11-09T14:38:29.293Z,1.00
2022-11-09T14:40:59.701Z,1.00
2022-11-09T14:43:29.733Z,1.00
2022-11-09T14:46:02.389Z,1.00
2022-11-09T14:48:32.991Z,1.00
2022-11-09T14:51:03.588Z,1.00
2022-11-09T14:53:33.645Z,1.00
2022-11-09T14:56:05.714Z,1.00
2022-11-09T14:58:37.107Z,1.00
2022-11-09T15:01:10.711Z,1.00
2022-11-09T15:03:38.802Z,1.00
2022-11-09T15:06:10.081Z,1.00
2022-11-09T15:08:41.498Z,1.00
2022-11-09T15:11:11.079Z,1.00
2022-11-09T15:13:41.646Z,1.00
2022-11-09T15:16:20.150Z,1.00
2022-11-09T15:18:49.129Z,1.00
2022-11-09T15:21:19.966Z,1.00
2022-11-09T15:23:49.865Z,1.00
2022-11-09T15:26:36.583Z,1.00
2022-11-09T15:29:27.519Z,1.00
2022-11-09T15:32:01.416Z,1.00
2022-11-09T15:34:41.807Z,2.80
2022-11-09T15:37:21.914Z,1.00
2022-11-09T15:39:50.239Z,1.00
2022-11-09T15:42:20.756Z,1.00
2022-11-09T15:44:53.067Z,3.50
2022-11-09T15:47:24.898Z,12.50
2022-11-09T15:49:53.087Z,10.00
2022-11-09T15:52:21.293Z,13.80
2022-11-09T15:54:49.543Z,15.80
2022-11-09T15:57:21.883Z,15.90
2022-11-09T15:59:52.036Z,9.10
2022-11-09T16:02:20.209Z,1.70
2022-11-09T16:04:48.386Z,1.90
2022-11-09T16:07:17.458Z,9.10
2022-11-09T16:09:45.584Z,10.10
2022-11-09T16:12:13.702Z,1.00
2022-11-09T16:14:43.191Z,8.40
2022-11-09T16:17:11.407Z,8.70
2022-11-09T16:19:42.602Z,1.00
2022-11-09T16:22:12.333Z,1.00
2022-11-09T16:24:40.746Z,1.00
2022-11-09T16:27:17.143Z,1.00
2022-11-09T16:29:59.523Z,1.00
2022-11-09T16:32:27.875Z,1.00
2022-11-09T16:35:15.827Z,1.00
2022-11-09T16:37:44.942Z,1.00
2022-11-09T16:40:17.116Z,1.00
2022-11-09T16:42:45.576Z,9.40
2022-11-09T16:45:17.362Z,19.10
2022-11-09T16:47:47.471Z,23.90
2022-11-09T16:50:15.976Z,29.50
2022-11-09T16:52:44.764Z,28.90
2022-11-09T16:55:14.646Z,34.00
2022-11-09T16:57:42.773Z,39.10
2022-11-09T17:00:12.399Z,28.50
2022-11-09T17:02:41.990Z,25.70
2022-11-09T17:05:10.363Z,23.50
2022-11-09T17:07:42.837Z,25.60
2022-11-09T17:10:11.968Z,22.40
2022-11-09T17:12:40.118Z,24.50
2022-11-09T17:15:09.551Z,20.90
2022-11-09T17:17:37.643Z,17.90
2022-11-09T17:20:08.707Z,1.00
2022-11-09T17:22:40.276Z,6.70
2022-11-09T17:25:11.527Z,1.00
2022-11-09T17:27:39.828Z,1.00
2022-11-09T17:30:09.519Z,1.00
2022-11-09T17:32:38.101Z,14.70
2022-11-09T17:35:08.021Z,21.70
2022-11-09T17:37:36.158Z,28.30
2022-11-09T17:40:04.523Z,28.20
2022-11-09T17:42:34.825Z,23.70
2022-11-09T17:45:03.457Z,24.40
2022-11-09T17:47:32.212Z,29.00
2022-11-09T17:50:01.380Z,31.40
2022-11-09T17:52:30.871Z,32.20
2022-11-09T17:54:58.924Z,23.00
2022-11-09T17:57:27.052Z,28.70
2022-11-09T17:59:55.333Z,29.80
2022-11-09T18:02:23.476Z,26.00
2022-11-09T18:04:51.829Z,28.20
2022-11-09T18:07:19.957Z,24.40
2022-11-09T18:09:49.465Z,23.60
2022-11-09T18:12:17.533Z,31.60
2022-11-09T18:14:45.833Z,26.30
2022-11-09T18:17:14.042Z,18.90
2022-11-09T18:19:42.200Z,14.40
2022-11-09T18:22:12.826Z,15.40
2022-11-09T18:24:41.413Z,13.50
2022-11-09T18:27:11.588Z,20.30
2022-11-09T18:29:39.761Z,12.40
2022-11-09T18:32:08.159Z,12.20
2022-11-09T18:34:36.324Z,18.90
2022-11-09T18:37:04.499Z,10.90
2022-11-09T18:39:32.637Z,3.10
2022-11-09T18:42:02.069Z,6.90
2022-11-09T18:44:31.950Z,3.50
2022-11-09T18:47:05.000Z,13.30
2022-11-09T18:49:34.835Z,28.20
2022-11-09T18:52:03.476Z,25.10
2022-11-09T18:54:32.478Z,21.80
2022-11-09T18:57:00.791Z,28.60
2022-11-09T18:59:28.896Z,28.90
2022-11-09T19:01:58.343Z,24.80
2022-11-09T19:04:26.697Z,28.30
2022-11-09T19:06:55.300Z,27.90
2022-11-09T19:09:35.361Z,29.00
2022-11-09T19:12:06.573Z,12.80
2022-11-09T19:14:40.592Z,10.20
2022-11-09T19:17:13.287Z,6.40
2022-11-09T19:19:42.344Z,2.50
2022-11-09T19:22:17.738Z,1.00
2022-11-09T19:24:46.515Z,1.00
2022-11-09T19:27:14.584Z,1.00
2022-11-09T19:29:42.857Z,1.00
2022-11-09T19:32:12.315Z,1.00
2022-11-09T19:34:43.037Z,1.00
2022-11-09T19:37:11.257Z,1.00
2022-11-09T19:39:43.055Z,1.00
2022-11-09T19:42:11.937Z,1.00
2022-11-09T19:44:40.209Z,1.00
2022-11-09T19:47:08.587Z,1.00
2022-11-09T19:49:38.129Z,1.00
2022-11-09T19:52:06.431Z,1.00
2022-11-09T19:54:35.003Z,1.00
2022-11-09T19:57:03.208Z,1.00
2022-11-09T19:59:31.519Z,1.00
2022-11-09T20:02:00.741Z,1.00
2022-11-09T20:04:29.669Z,1.00
2022-11-09T20:06:59.420Z,1.00
2022-11-09T20:09:30.758Z,1.00
2022-11-09T20:12:16.919Z,1.00
2022-11-09T20:14:45.585Z,1.00
2022-11-09T20:17:16.536Z,1.00
2022-11-09T20:19:46.668Z,1.00
2022-11-09T20:22:16.573Z,1.00
2022-11-09T20:24:44.989Z,1.00
2022-11-09T20:27:14.670Z,1.00
2022-11-09T20:29:43.209Z,1.00
2022-11-09T20:32:14.860Z,1.00
2022-11-09T20:34:46.717Z,1.00
2022-11-09T20:37:17.064Z,1.00
2022-11-09T20:39:45.403Z,1.00
2022-11-09T20:42:13.875Z,1.00
2022-11-09T20:44:42.142Z,1.00
2022-11-09T20:47:10.925Z,1.00
2022-11-09T20:49:39.358Z,1.00
2022-11-09T20:52:07.623Z,1.00
2022-11-09T20:54:37.234Z,1.00
2022-11-09T20:57:05.644Z,1.00
2022-11-09T20:59:34.072Z,1.00
2022-11-09T21:02:02.258Z,1.00
2022-11-09T21:04:30.400Z,1.00
2022-11-09T21:06:58.728Z,1.00
2022-11-09T21:09:27.045Z,1.00
2022-11-09T21:12:15.224Z,1.00
2022-11-09T21:14:43.367Z,1.00
2022-11-09T21:17:12.260Z,1.00
2022-11-09T21:19:40.433Z,1.00
2022-11-09T21:22:08.598Z,1.00
2022-11-09T21:24:54.185Z,1.00
2022-11-09T21:27:43.138Z,1.00
2022-11-09T21:30:17.660Z,1.00
2022-11-09T21:32:45.952Z,1.00
2022-11-09T21:35:15.123Z,1.00
2022-11-09T21:37:43.293Z,1.00
2022-11-09T21:40:12.136Z,1.00
2022-11-09T21:42:41.880Z,1.00
2022-11-09T21:45:10.532Z,1.00
2022-11-09T21:47:38.682Z,1.00
2022-11-09T21:50:12.370Z,1.00
2022-11-09T21:52:41.211Z,1.00
2022-11-09T21:55:09.792Z,1.00
2022-11-09T21:57:38.069Z,1.00
2022-11-09T22:00:09.363Z,1.00
2022-11-09T22:02:37.727Z,1.00
2022-11-09T22:05:06.748Z,1.00
2022-11-09T22:07:34.832Z,1.00
2022-11-09T22:10:11.564Z,1.00
2022-11-09T22:12:57.605Z,1.00
2022-11-09T22:15:45.085Z,1.00
2022-11-09T22:18:33.454Z,1.00
2022-11-09T22:21:00.549Z,1.00
2022-11-09T22:23:28.686Z,99.90
2022-11-09T22:25:57.075Z,1.00
2022-11-09T22:28:25.889Z,1.00
2022-11-09T22:30:55.526Z,1.00
2022-11-09T22:33:27.310Z,99.90
2022-11-09T22:35:56.425Z,99.90
2022-11-09T22:38:24.748Z,1.00
2022-11-09T22:40:53.126Z,1.00
2022-11-09T22:43:21.944Z,1.00
2022-11-09T22:45:50.461Z,1.00
2022-11-09T22:48:20.107Z,1.00
2022-11-09T22:50:48.134Z,1.00
2022-11-09T22:53:16.246Z,1.00
2022-11-09T22:55:44.352Z,99.90
2022-11-09T22:58:12.483Z,99.90
2022-11-09T23:00:41.696Z,99.90
2022-11-09T23:03:09.799Z,99.90
2022-11-09T23:05:39.410Z,99.90
2022-11-09T23:08:07.767Z,99.90
2022-11-09T23:10:36.013Z,99.90
2022-11-09T23:13:04.531Z,99.90
2022-11-09T23:15:32.803Z,99.90
2022-11-09T23:18:18.540Z,99.90
2022-11-09T23:20:49.217Z,1.00
2022-11-09T23:23:17.402Z,99.90
2022-11-09T23:25:57.448Z,1.00
2022-11-09T23:28:25.688Z,99.90
2022-11-09T23:30:53.791Z,1.00
2022-11-09T23:33:21.999Z,1.00
2022-11-09T23:35:51.663Z,1.00
2022-11-09T23:38:19.826Z,1.00
2022-11-09T23:40:47.951Z,1.00
2022-11-09T23:43:16.997Z,1.00
2022-11-09T23:45:45.506Z,1.00
2022-11-09T23:48:16.351Z,1.00
2022-11-09T23:50:45.035Z,1.00
2022-11-09T23:53:14.790Z,99.90
2022-11-09T23:55:42.889Z,1.00
2022-11-09T23:58:11.028Z,1.00
